createdAt,value
2019-02-22T00:01:23.824Z,47.70
2019-02-22T00:03:52.386Z,47.20
2019-02-22T00:06:21.007Z,46.90
2019-02-22T00:08:49.742Z,47.10
2019-02-22T00:11:18.339Z,47.30
2019-02-22T00:13:47.116Z,47.50
2019-02-22T00:16:15.803Z,48.50
2019-02-22T00:18:44.527Z,48.00
2019-02-22T00:21:14.436Z,48.10
2019-02-22T00:23:43.807Z,48.80
2019-02-22T00:26:13.293Z,49.40
2019-02-22T00:28:42.120Z,50.70
2019-02-22T00:31:11.158Z,51.40
2019-02-22T00:33:39.935Z,52.30
2019-02-22T00:36:10.455Z,52.30
2019-02-22T00:38:39.123Z,52.60
2019-02-22T00:41:07.649Z,51.40
2019-02-22T00:43:36.235Z,51.50
2019-02-22T00:46:06.234Z,52.00
2019-02-22T00:48:35.030Z,52.50
2019-02-22T00:51:05.286Z,52.30
2019-02-22T00:53:34.146Z,52.00
2019-02-22T00:56:04.384Z,52.10
2019-02-22T00:58:32.978Z,52.40
2019-02-22T01:01:01.667Z,53.10
2019-02-22T01:03:30.248Z,53.80
2019-02-22T01:05:58.819Z,53.90
2019-02-22T01:08:27.769Z,53.70
2019-02-22T01:10:56.431Z,53.90
2019-02-22T01:13:25.287Z,52.80
2019-02-22T01:15:55.052Z,52.80
2019-02-22T01:18:22.929Z,52.40
2019-02-22T01:20:54.661Z,53.30
2019-02-22T01:23:22.624Z,54.40
2019-02-22T01:25:51.843Z,54.20
2019-02-22T01:28:20.071Z,54.40
2019-02-22T01:30:49.996Z,54.30
2019-02-22T01:33:19.180Z,53.50
2019-02-22T01:35:47.169Z,54.90
2019-02-22T01:38:15.186Z,54.80
2019-02-22T01:40:44.352Z,55.10
2019-02-22T01:43:12.520Z,55.20
2019-02-22T01:45:40.497Z,54.30
2019-02-22T01:48:08.357Z,55.00
2019-02-22T01:50:36.246Z,55.10
2019-02-22T01:53:05.724Z,54.60
2019-02-22T01:55:33.602Z,54.70
2019-02-22T01:58:01.428Z,54.20
2019-02-22T02:00:31.328Z,53.60
2019-02-22T02:02:59.217Z,53.10
2019-02-22T02:05:27.207Z,51.70
2019-02-22T02:07:55.220Z,53.20
2019-02-22T02:10:23.204Z,52.10
2019-02-22T02:12:51.217Z,51.90
2019-02-22T02:15:19.241Z,52.40
2019-02-22T02:17:47.306Z,52.00
2019-02-22T02:20:15.395Z,51.20
2019-02-22T02:22:43.646Z,50.90
2019-02-22T02:25:12.036Z,51.80
2019-02-22T02:27:40.121Z,52.00
2019-02-22T02:30:12.069Z,52.80
2019-02-22T02:32:40.128Z,53.00
2019-02-22T02:35:08.244Z,52.60
2019-02-22T02:37:36.227Z,51.90
2019-02-22T02:40:05.847Z,52.20
2019-02-22T02:42:36.731Z,52.20
2019-02-22T02:45:05.335Z,52.50
2019-02-22T02:47:33.261Z,52.30
2019-02-22T02:50:01.100Z,51.50
2019-02-22T02:52:29.095Z,51.30
2019-02-22T02:54:56.959Z,50.50
2019-02-22T02:57:24.839Z,51.10
2019-02-22T02:59:52.786Z,50.20
2019-02-22T03:02:22.705Z,50.10
2019-02-22T03:04:50.675Z,50.70
2019-02-22T03:07:36.939Z,49.90
2019-02-22T03:10:06.315Z,48.50
2019-02-22T03:12:34.161Z,50.50
2019-02-22T03:15:01.988Z,50.90
2019-02-22T03:17:30.383Z,50.80
2019-02-22T03:19:58.347Z,52.00
2019-02-22T03:22:26.333Z,52.80
2019-02-22T03:24:54.345Z,52.80
2019-02-22T03:27:22.336Z,53.40
2019-02-22T03:29:50.332Z,53.00
2019-02-22T03:32:18.344Z,52.60
2019-02-22T03:34:46.385Z,52.70
2019-02-22T03:37:14.436Z,51.90
2019-02-22T03:39:42.512Z,51.70
2019-02-22T03:42:10.406Z,51.10
2019-02-22T03:44:42.627Z,50.60
2019-02-22T03:47:10.685Z,50.50
2019-02-22T03:49:40.125Z,51.10
2019-02-22T03:52:26.363Z,51.70
2019-02-22T03:54:54.382Z,51.60
2019-02-22T03:57:23.913Z,52.80
2019-02-22T03:59:51.796Z,52.30
2019-02-22T04:02:20.803Z,52.30
2019-02-22T04:04:49.111Z,53.10
2019-02-22T04:07:17.280Z,52.60
2019-02-22T04:09:48.455Z,51.20
2019-02-22T04:12:17.229Z,50.00
2019-02-22T04:14:46.537Z,49.00
2019-02-22T04:17:14.386Z,49.40
2019-02-22T04:19:43.041Z,49.70
2019-02-22T04:22:11.105Z,50.00
2019-02-22T04:24:42.444Z,49.90
2019-02-22T04:27:11.943Z,49.90
2019-02-22T04:29:39.936Z,49.00
2019-02-22T04:32:11.141Z,49.40
2019-02-22T04:34:40.732Z,49.20
2019-02-22T04:37:08.633Z,47.80
2019-02-22T04:39:39.591Z,48.10
2019-02-22T04:42:07.750Z,49.00
2019-02-22T04:44:37.112Z,50.00
2019-02-22T04:47:05.207Z,50.40
2019-02-22T04:49:33.048Z,51.30
2019-02-22T04:52:02.022Z,50.90
2019-02-22T04:54:29.982Z,51.00
2019-02-22T04:56:58.989Z,50.70
2019-02-22T04:59:27.893Z,49.20
2019-02-22T05:01:56.071Z,48.10
2019-02-22T05:04:24.025Z,48.20
2019-02-22T05:06:52.449Z,48.00
2019-02-22T05:09:22.159Z,47.10
2019-02-22T05:11:50.553Z,47.50
2019-02-22T05:14:18.491Z,47.00
2019-02-22T05:16:46.482Z,46.70
2019-02-22T05:19:15.564Z,46.50
2019-02-22T05:21:43.604Z,48.80
2019-02-22T05:24:11.775Z,48.10
2019-02-22T05:26:42.800Z,48.70
2019-02-22T05:29:11.168Z,47.70
2019-02-22T05:31:39.205Z,47.80
2019-02-22T05:34:07.107Z,47.20
2019-02-22T05:36:35.059Z,47.00
2019-02-22T05:39:04.512Z,46.20
2019-02-22T05:41:33.157Z,45.40
2019-02-22T05:44:02.978Z,45.50
2019-02-22T05:46:30.824Z,44.70
2019-02-22T05:48:58.827Z,45.40
2019-02-22T05:51:26.825Z,45.10
2019-02-22T05:53:54.784Z,45.80
2019-02-22T05:56:22.832Z,44.70
2019-02-22T05:58:50.963Z,45.80
2019-02-22T06:01:18.850Z,44.80
2019-02-22T06:03:46.944Z,43.70
2019-02-22T06:06:14.788Z,44.60
2019-02-22T06:08:42.849Z,44.70
2019-02-22T06:11:10.743Z,45.00
2019-02-22T06:13:38.848Z,44.70
2019-02-22T06:16:06.822Z,45.70
2019-02-22T06:18:35.711Z,46.40
2019-02-22T06:21:03.948Z,46.10
2019-02-22T06:23:32.496Z,45.70
2019-02-22T06:26:00.715Z,46.00
2019-02-22T06:28:28.921Z,45.30
2019-02-22T06:30:58.491Z,45.20
2019-02-22T06:33:26.894Z,45.20
2019-02-22T06:35:56.908Z,45.00
2019-02-22T06:38:25.194Z,46.60
2019-02-22T06:40:53.689Z,45.70
2019-02-22T06:43:22.294Z,45.60
2019-02-22T06:45:50.686Z,44.50
2019-02-22T06:48:20.661Z,44.90
2019-02-22T06:50:49.121Z,44.60
2019-02-22T06:53:17.522Z,43.40
2019-02-22T06:55:45.613Z,43.00
2019-02-22T06:58:14.183Z,42.80
2019-02-22T07:00:43.770Z,43.00
2019-02-22T07:03:14.292Z,43.90
2019-02-22T07:05:42.607Z,43.00
2019-02-22T07:08:12.316Z,43.20
2019-02-22T07:10:55.772Z,43.30
2019-02-22T07:13:24.575Z,43.80
2019-02-22T07:15:56.520Z,43.50
2019-02-22T07:18:25.082Z,43.50
2019-02-22T07:20:55.862Z,43.30
2019-02-22T07:23:25.438Z,42.90
2019-02-22T07:25:55.598Z,42.70
2019-02-22T07:28:25.734Z,41.70
2019-02-22T07:30:54.048Z,41.40
2019-02-22T07:33:22.697Z,41.20
2019-02-22T07:35:51.382Z,41.00
2019-02-22T07:38:19.772Z,40.70
2019-02-22T07:40:48.216Z,41.70
2019-02-22T07:43:16.719Z,41.20
2019-02-22T07:45:47.744Z,42.70
2019-02-22T07:48:18.064Z,42.50
2019-02-22T07:50:56.959Z,42.30
2019-02-22T07:53:17.571Z,43.50
2019-02-22T07:55:46.161Z,43.00
2019-02-22T07:58:14.679Z,42.00
2019-02-22T08:00:44.819Z,42.10
2019-02-22T08:03:14.802Z,42.60
2019-02-22T08:05:43.206Z,42.70
2019-02-22T08:08:11.690Z,41.90
2019-02-22T08:10:40.230Z,41.00
2019-02-22T08:13:19.255Z,40.10
2019-02-22T08:15:38.346Z,40.50
2019-02-22T08:18:08.041Z,41.10
2019-02-22T08:20:36.320Z,40.10
2019-02-22T08:23:06.402Z,40.40
2019-02-22T08:25:36.675Z,39.00
2019-02-22T08:28:07.659Z,38.60
2019-02-22T08:30:36.242Z,38.10
2019-02-22T08:33:04.619Z,37.80
2019-02-22T08:35:33.099Z,37.20
2019-02-22T08:38:01.616Z,37.90
2019-02-22T08:40:30.084Z,38.50
2019-02-22T08:42:58.653Z,38.90
2019-02-22T08:45:27.382Z,37.60
2019-02-22T08:47:55.674Z,37.10
2019-02-22T08:50:24.444Z,37.40
2019-02-22T08:52:52.592Z,37.20
2019-02-22T08:55:21.241Z,36.80
2019-02-22T08:57:49.284Z,35.70
2019-02-22T09:00:17.679Z,35.20
2019-02-22T09:02:47.596Z,35.70
2019-02-22T09:05:15.882Z,36.10
2019-02-22T09:07:45.720Z,36.20
2019-02-22T09:10:14.608Z,34.70
2019-02-22T09:12:44.469Z,34.40
2019-02-22T09:15:12.832Z,33.80
2019-02-22T09:17:41.484Z,34.10
2019-02-22T09:20:11.534Z,34.70
2019-02-22T09:22:40.182Z,35.30
2019-02-22T09:25:08.709Z,34.70
2019-02-22T09:27:37.081Z,33.40
2019-02-22T09:30:07.289Z,32.40
2019-02-22T09:32:35.771Z,32.10
2019-02-22T09:35:06.576Z,30.50
2019-02-22T09:37:35.051Z,30.10
2019-02-22T09:40:05.477Z,30.40
2019-02-22T09:42:33.687Z,31.90
2019-02-22T09:45:02.110Z,31.40
2019-02-22T09:47:36.693Z,30.70
2019-02-22T09:50:06.896Z,30.20
2019-02-22T09:52:36.865Z,30.10
2019-02-22T09:55:08.524Z,29.40
2019-02-22T09:57:37.573Z,30.00
2019-02-22T10:00:10.032Z,27.70
2019-02-22T10:02:39.503Z,25.30
2019-02-22T10:05:10.395Z,22.50
2019-02-22T10:07:39.620Z,19.60
2019-02-22T10:10:10.609Z,17.70
2019-02-22T10:12:42.961Z,16.50
2019-02-22T10:15:12.530Z,16.00
2019-02-22T10:17:41.548Z,16.00
2019-02-22T10:20:11.579Z,15.30
2019-02-22T10:22:42.364Z,14.30
2019-02-22T10:25:12.215Z,14.30
2019-02-22T10:27:42.932Z,14.20
2019-02-22T10:30:13.126Z,14.00
2019-02-22T10:32:42.337Z,13.90
2019-02-22T10:35:11.616Z,14.30
2019-02-22T10:37:40.832Z,14.60
2019-02-22T10:40:10.574Z,14.60
2019-02-22T10:42:39.617Z,14.60
2019-02-22T10:45:10.446Z,14.70
2019-02-22T10:47:39.353Z,14.80
2019-02-22T10:50:09.549Z,14.20
2019-02-22T10:52:38.939Z,13.10
2019-02-22T10:55:10.571Z,13.50
2019-02-22T10:57:40.009Z,13.80
2019-02-22T11:00:13.043Z,13.80
2019-02-22T11:02:42.143Z,13.30
2019-02-22T11:05:12.762Z,13.00
2019-02-22T11:07:42.333Z,12.80
2019-02-22T11:10:13.021Z,12.00
2019-02-22T11:12:42.605Z,11.30
2019-02-22T11:15:12.863Z,11.30
2019-02-22T11:17:42.349Z,11.40
2019-02-22T11:20:12.125Z,11.90
2019-02-22T11:22:41.121Z,12.50
2019-02-22T11:25:14.029Z,12.10
2019-02-22T11:27:44.674Z,12.50
2019-02-22T11:30:16.627Z,13.00
2019-02-22T11:32:46.500Z,12.80
2019-02-22T11:35:15.579Z,14.00
2019-02-22T11:37:44.862Z,14.20
2019-02-22T11:40:14.248Z,15.10
2019-02-22T11:42:42.711Z,15.70
2019-02-22T11:45:12.903Z,17.80
2019-02-22T11:47:41.701Z,19.10
2019-02-22T11:50:11.089Z,20.30
2019-02-22T11:52:39.696Z,21.70
2019-02-22T11:55:11.524Z,22.80
2019-02-22T11:57:40.062Z,23.10
2019-02-22T12:00:10.316Z,22.80
2019-02-22T12:02:39.367Z,23.00
2019-02-22T12:05:07.829Z,23.20
2019-02-22T12:07:36.469Z,23.30
2019-02-22T12:10:05.881Z,23.80
2019-02-22T12:12:34.622Z,24.20
2019-02-22T12:15:03.079Z,24.60
2019-02-22T12:17:31.889Z,23.90
2019-02-22T12:20:00.492Z,23.30
2019-02-22T12:22:29.169Z,22.50
2019-02-22T12:24:58.483Z,21.80
2019-02-22T12:27:27.088Z,23.10
2019-02-22T12:29:55.602Z,24.30
2019-02-22T12:32:24.067Z,24.50
2019-02-22T12:34:52.837Z,26.10
2019-02-22T12:37:22.337Z,27.00
2019-02-22T12:39:51.123Z,25.80
2019-02-22T12:42:19.732Z,25.70
2019-02-22T12:44:48.401Z,26.00
2019-02-22T12:47:19.496Z,25.50
2019-02-22T12:49:48.281Z,24.70
2019-02-22T12:52:18.021Z,23.70
2019-02-22T12:54:46.490Z,24.00
2019-02-22T12:57:14.957Z,24.10
2019-02-22T12:59:44.538Z,23.00
2019-02-22T13:02:13.157Z,24.00
2019-02-22T13:04:41.507Z,23.80
2019-02-22T13:07:09.949Z,22.30
2019-02-22T13:09:38.316Z,22.00
2019-02-22T13:12:13.958Z,22.50
2019-02-22T13:14:37.876Z,21.80
2019-02-22T13:17:06.446Z,22.30
2019-02-22T13:19:36.219Z,21.60
2019-02-22T13:22:05.048Z,21.00
2019-02-22T13:24:33.670Z,21.10
2019-02-22T13:27:04.046Z,20.80
2019-02-22T13:29:32.827Z,20.10
2019-02-22T13:32:02.635Z,19.90
2019-02-22T13:34:31.129Z,20.50
2019-02-22T13:36:59.508Z,21.10
2019-02-22T13:39:30.996Z,20.60
2019-02-22T13:41:59.477Z,20.30
2019-02-22T13:44:28.046Z,19.80
2019-02-22T13:46:58.090Z,20.50
2019-02-22T13:49:26.709Z,21.00
2019-02-22T13:51:55.186Z,21.80
2019-02-22T13:54:23.961Z,22.80
2019-02-22T13:56:52.578Z,22.80
2019-02-22T13:59:21.120Z,22.50
2019-02-22T14:01:49.796Z,20.90
2019-02-22T14:04:18.204Z,19.80
2019-02-22T14:06:47.126Z,20.00
2019-02-22T14:09:15.760Z,20.60
2019-02-22T14:11:44.148Z,21.10
2019-02-22T14:14:12.611Z,21.60
2019-02-22T14:16:41.056Z,21.50
2019-02-22T14:19:11.670Z,21.90
2019-02-22T14:21:39.998Z,22.20
2019-02-22T14:24:08.491Z,21.20
2019-02-22T14:26:37.075Z,22.00
2019-02-22T14:29:05.643Z,22.70
2019-02-22T14:31:35.225Z,22.10
2019-02-22T14:34:04.585Z,22.30
2019-02-22T14:36:33.102Z,21.40
2019-02-22T14:39:01.643Z,21.30
2019-02-22T14:41:30.022Z,21.90
2019-02-22T14:43:58.540Z,22.20
2019-02-22T14:46:27.062Z,22.40
2019-02-22T14:48:55.572Z,21.80
2019-02-22T14:51:24.220Z,21.20
2019-02-22T14:53:52.950Z,21.10
2019-02-22T14:56:21.417Z,21.60
2019-02-22T14:58:49.938Z,22.40
2019-02-22T15:01:18.643Z,22.70
2019-02-22T15:03:47.213Z,22.20
2019-02-22T15:06:15.686Z,22.10
2019-02-22T15:08:44.205Z,22.40
2019-02-22T15:11:12.840Z,22.50
2019-02-22T15:13:41.382Z,22.80
2019-02-22T15:16:11.171Z,22.70
2019-02-22T15:18:39.517Z,22.20
2019-02-22T15:21:07.998Z,22.40
2019-02-22T15:23:38.667Z,22.90
2019-02-22T15:26:07.090Z,23.30
2019-02-22T15:28:35.949Z,23.50
2019-02-22T15:31:04.252Z,23.50
2019-02-22T15:33:32.638Z,23.50
2019-02-22T15:36:01.996Z,23.40
2019-02-22T15:38:31.581Z,23.60
2019-02-22T15:41:00.413Z,24.00
2019-02-22T15:43:30.070Z,24.80
2019-02-22T15:45:58.354Z,24.50
2019-02-22T15:48:26.764Z,24.50
2019-02-22T15:50:55.150Z,24.50
2019-02-22T15:53:23.536Z,23.60
2019-02-22T15:55:51.688Z,23.60
2019-02-22T15:58:21.797Z,23.80
2019-02-22T16:00:59.229Z,24.20
2019-02-22T16:03:30.910Z,23.80
2019-02-22T16:05:58.924Z,23.90
2019-02-22T16:08:29.326Z,23.70
2019-02-22T16:10:57.965Z,23.80
2019-02-22T16:13:29.417Z,23.40
2019-02-22T16:15:58.457Z,23.60
2019-02-22T16:18:26.900Z,24.00
2019-02-22T16:20:56.510Z,24.10
2019-02-22T16:23:32.056Z,24.00
2019-02-22T16:26:00.597Z,23.70
2019-02-22T16:28:28.871Z,23.50
2019-02-22T16:30:57.202Z,23.60
2019-02-22T16:33:27.113Z,24.00
2019-02-22T16:35:55.156Z,23.40
2019-02-22T16:38:23.383Z,23.40
2019-02-22T16:40:52.939Z,23.00
2019-02-22T16:43:23.973Z,23.40
2019-02-22T16:45:52.339Z,23.10
2019-02-22T16:48:20.705Z,22.80
2019-02-22T16:50:49.278Z,22.60
2019-02-22T16:53:22.497Z,22.80
2019-02-22T16:55:50.733Z,23.10
2019-02-22T16:58:18.776Z,22.80
2019-02-22T17:00:47.239Z,23.20
2019-02-22T17:03:15.472Z,23.10
2019-02-22T17:05:44.923Z,23.30
2019-02-22T17:08:13.465Z,23.40
2019-02-22T17:10:41.651Z,23.50
2019-02-22T17:13:09.771Z,23.60
2019-02-22T17:15:38.088Z,23.70
2019-02-22T17:18:06.356Z,23.80
2019-02-22T17:20:34.971Z,23.40
2019-02-22T17:23:03.390Z,23.50
2019-02-22T17:25:31.594Z,23.40
2019-02-22T17:27:59.826Z,23.40
2019-02-22T17:30:29.517Z,23.60
2019-02-22T17:32:57.871Z,23.50
2019-02-22T17:35:26.416Z,23.30
2019-02-22T17:37:54.750Z,24.00
2019-02-22T17:40:25.336Z,24.30
2019-02-22T17:42:53.661Z,24.40
2019-02-22T17:45:23.219Z,24.50
2019-02-22T17:47:51.556Z,24.60
2019-02-22T17:50:21.217Z,24.70
2019-02-22T17:52:49.697Z,24.80
2019-02-22T17:55:18.323Z,25.10
2019-02-22T17:57:46.668Z,25.50
2019-02-22T18:00:19.286Z,25.50
2019-02-22T18:02:47.751Z,25.90
2019-02-22T18:05:16.330Z,26.10
2019-02-22T18:07:45.102Z,25.90
2019-02-22T18:10:13.783Z,26.00
2019-02-22T18:12:42.625Z,26.00
2019-02-22T18:15:11.801Z,26.10
2019-02-22T18:17:41.068Z,25.80
2019-02-22T18:20:09.301Z,25.60
2019-02-22T18:25:56.262Z,25.80
2019-02-22T18:31:13.687Z,25.50
2019-02-22T18:33:44.143Z,25.50
2019-02-22T18:36:12.525Z,25.20
2019-02-22T18:38:41.035Z,25.10
2019-02-22T18:41:09.312Z,25.30
2019-02-22T18:43:37.949Z,25.40
2019-02-22T18:46:06.516Z,25.50
2019-02-22T18:48:35.044Z,25.80
2019-02-22T18:51:03.488Z,25.80
2019-02-22T18:53:31.954Z,26.10
2019-02-22T18:56:00.536Z,26.40
2019-02-22T18:58:28.948Z,26.90
2019-02-22T19:00:57.385Z,26.90
2019-02-22T19:03:25.878Z,26.90
2019-02-22T19:05:54.370Z,26.60
2019-02-22T19:08:32.127Z,27.30
2019-02-22T19:10:52.705Z,27.60
2019-02-22T19:13:22.388Z,27.60
2019-02-22T19:15:51.039Z,27.20
2019-02-22T19:18:19.356Z,27.50
2019-02-22T19:20:47.839Z,27.70
2019-02-22T19:23:16.207Z,27.80
2019-02-22T19:25:44.847Z,27.70
2019-02-22T19:28:14.522Z,27.80
2019-02-22T19:30:42.735Z,27.90
2019-02-22T19:33:11.008Z,28.10
2019-02-22T19:35:40.567Z,28.30
2019-02-22T19:38:09.166Z,27.70
2019-02-22T19:40:37.564Z,27.50
2019-02-22T19:43:06.148Z,27.10
2019-02-22T19:45:34.583Z,27.10
2019-02-22T19:48:03.300Z,26.90
2019-02-22T19:50:41.023Z,26.50
2019-02-22T19:53:03.178Z,26.40
2019-02-22T19:55:32.700Z,26.40
2019-02-22T19:58:01.329Z,26.20
2019-02-22T20:00:30.135Z,26.10
2019-02-22T20:02:58.534Z,26.50
2019-02-22T20:05:27.209Z,26.70
2019-02-22T20:07:55.694Z,27.00
2019-02-22T20:10:23.996Z,27.40
2019-02-22T20:12:53.496Z,27.50
2019-02-22T20:15:22.019Z,27.20
2019-02-22T20:17:54.414Z,26.80
2019-02-22T20:20:20.499Z,26.50
2019-02-22T20:22:49.247Z,26.20
2019-02-22T20:25:17.835Z,25.90
2019-02-22T20:27:47.141Z,26.20
2019-02-22T20:30:15.891Z,26.60
2019-02-22T20:32:44.508Z,26.30
2019-02-22T20:35:14.356Z,26.20
2019-02-22T20:37:51.884Z,26.20
2019-02-22T20:40:13.923Z,26.60
2019-02-22T20:42:43.158Z,26.70
2019-02-22T20:45:13.761Z,26.70
2019-02-22T20:47:42.255Z,26.70
2019-02-22T20:50:11.511Z,26.50
2019-02-22T20:52:39.652Z,27.10
2019-02-22T20:55:08.965Z,27.40
2019-02-22T20:57:38.908Z,27.50
2019-02-22T21:00:08.629Z,27.30
2019-02-22T21:02:36.998Z,27.60
2019-02-22T21:05:06.380Z,27.70
2019-02-22T21:07:34.681Z,28.00
2019-02-22T21:10:02.741Z,28.50
2019-02-22T21:12:30.886Z,28.80
2019-02-22T21:14:59.143Z,28.80
2019-02-22T21:17:28.341Z,29.10
2019-02-22T21:19:57.770Z,29.20
2019-02-22T21:25:39.301Z,28.70
2019-02-22T21:28:07.519Z,29.20
2019-02-22T21:30:35.703Z,29.40
2019-02-22T21:33:03.709Z,29.70
2019-02-22T21:35:31.896Z,29.80
2019-02-22T21:38:00.001Z,29.60
2019-02-22T21:40:28.088Z,29.70
2019-02-22T21:42:56.104Z,29.60
2019-02-22T21:45:25.709Z,29.50
2019-02-22T21:47:55.649Z,29.20
2019-02-22T21:50:23.678Z,29.00
2019-02-22T21:52:51.898Z,28.80
2019-02-22T21:55:20.332Z,28.60
2019-02-22T21:57:48.381Z,29.10
2019-02-22T22:00:17.614Z,29.20
2019-02-22T22:02:45.660Z,29.10
2019-02-22T22:05:13.620Z,29.30
2019-02-22T22:07:42.092Z,29.10
2019-02-22T22:10:10.624Z,29.20
2019-02-22T22:12:38.860Z,29.40
2019-02-22T22:15:10.556Z,29.60
2019-02-22T22:17:37.947Z,29.30
2019-02-22T22:20:07.681Z,29.40
2019-02-22T22:22:36.003Z,29.40
2019-02-22T22:25:04.777Z,29.50
2019-02-22T22:27:33.002Z,28.90
2019-02-22T22:30:01.218Z,28.70
2019-02-22T22:32:29.450Z,28.90
2019-02-22T22:34:57.531Z,29.30
2019-02-22T22:37:25.610Z,29.50
2019-02-22T22:39:53.421Z,29.50
2019-02-22T22:42:23.759Z,29.80
2019-02-22T22:44:51.749Z,29.30
2019-02-22T22:47:19.699Z,29.20
2019-02-22T22:49:47.669Z,29.20
2019-02-22T22:52:15.852Z,29.20
2019-02-22T22:54:43.717Z,29.40
2019-02-22T22:57:11.669Z,29.60
2019-02-22T22:59:39.539Z,29.40
2019-02-22T23:02:07.888Z,28.80
2019-02-22T23:04:35.938Z,28.30
2019-02-22T23:07:03.951Z,28.50
2019-02-22T23:09:31.991Z,29.10
2019-02-22T23:11:59.992Z,29.40
2019-02-22T23:14:28.373Z,29.60
2019-02-22T23:16:56.410Z,29.50
2019-02-22T23:19:24.533Z,29.40
2019-02-22T23:21:55.016Z,29.00
2019-02-22T23:24:23.317Z,28.90
2019-02-22T23:26:51.545Z,28.90
2019-02-22T23:29:19.523Z,29.00
2019-02-22T23:31:47.858Z,28.40
2019-02-22T23:34:15.856Z,28.20
2019-02-22T23:36:43.919Z,28.50
2019-02-22T23:39:15.214Z,28.90
2019-02-22T23:41:45.725Z,29.00
2019-02-22T23:44:13.765Z,29.00
2019-02-22T23:46:41.697Z,29.00
2019-02-22T23:49:13.361Z,28.80
2019-02-22T23:51:42.805Z,29.30
2019-02-22T23:54:12.590Z,29.00
2019-02-22T23:56:40.555Z,29.00
2019-02-22T23:59:08.947Z,29.30
